Bookmark and Share
Track history (hours):
 

F/V Roger Christian3

Last reported at 2014-Apr-21 11:33 UTC. Time now 2014-Apr-21 12:10 UTC.
Position N 43°24' E 003°42'.

Length 24 m.

Type: Fishing. MMSI: 228173800.

NotesDate/timePositionNaut miles runAvg speedWind from/ knotsBaromVisibWave heightAir tempDewpointWater temp
2014-Apr-21 11:33N 43°24' E 003°42'0 0.0
2014-Apr-21 10:33N 43°24' E 003°42'0 0.0
2014-Apr-21 09:32N 43°24' E 003°42'0 0.0
2014-Apr-21 08:34N 43°24' E 003°42'0 0.0
2014-Apr-21 07:33N 43°24' E 003°42'0 0.0
2014-Apr-21 06:31N 43°24' E 003°42'0 0.0
2014-Apr-21 05:32N 43°24' E 003°42'0 0.0
2014-Apr-21 04:32N 43°24' E 003°42'0 0.0
2014-Apr-21 03:33N 43°24' E 003°42'0 0.0
2014-Apr-21 02:30N 43°24' E 003°42'0 0.0
2014-Apr-21 01:33N 43°24' E 003°42'0 0.0
2014-Apr-21 00:30N 43°24' E 003°42'0 0.0
2014-Apr-20 23:33N 43°24' E 003°42'0 0.0
2014-Apr-20 22:29N 43°24' E 003°42'0 0.0
2014-Apr-20 21:31N 43°24' E 003°42'0 0.0
2014-Apr-20 20:33N 43°24' E 003°42'0 0.0
2014-Apr-20 19:28N 43°24' E 003°42'0 0.0
2014-Apr-20 18:29N 43°24' E 003°42'0 0.0
2014-Apr-20 17:33N 43°24' E 003°42'0 0.0
2014-Apr-20 16:33N 43°24' E 003°42'0 0.0
2014-Apr-20 15:33N 43°24' E 003°42'0 0.0
2014-Apr-20 14:33N 43°24' E 003°42'0 0.0
2014-Apr-20 13:34N 43°24' E 003°42'0 0.0
2014-Apr-20 12:33N 43°24' E 003°42'0 0.0
2014-Apr-20 11:33N 43°24' E 003°42'0 0.0
2014-Apr-20 10:33N 43°24' E 003°42'0 0.0
2014-Apr-20 09:33N 43°24' E 003°42'0 0.0
2014-Apr-20 08:33N 43°24' E 003°42'0 0.0
2014-Apr-20 07:33N 43°24' E 003°42'0 0.0
2014-Apr-20 06:31N 43°24' E 003°42'0 0.0
2014-Apr-20 05:33N 43°24' E 003°42'0 0.0
2014-Apr-20 04:32N 43°24' E 003°42'0 0.0
2014-Apr-20 03:33N 43°24' E 003°42'0 0.0
2014-Apr-20 02:26N 43°24' E 003°42'0 0.0
2014-Apr-20 01:31N 43°24' E 003°42'0 0.0
2014-Apr-20 00:33N 43°24' E 003°42'0 0.0
2014-Apr-19 23:31N 43°24' E 003°42'0 0.0
2014-Apr-19 22:33N 43°24' E 003°42'0 0.0
2014-Apr-19 21:31N 43°24' E 003°42'0 0.0
2014-Apr-19 20:33N 43°24' E 003°42'0 0.0
2014-Apr-19 19:33N 43°24' E 003°42'0 0.0
2014-Apr-19 18:34N 43°24' E 003°42'0 0.0
2014-Apr-19 17:33N 43°24' E 003°42'0 0.0
2014-Apr-19 16:33N 43°24' E 003°42'0 0.0
2014-Apr-19 15:33N 43°24' E 003°42'0 0.0
2014-Apr-19 14:33N 43°24' E 003°42'0 0.0
2014-Apr-19 13:34N 43°24' E 003°42'0 0.0
2014-Apr-19 12:34N 43°24' E 003°42'0 0.0
2014-Apr-19 11:34N 43°24' E 003°42'0 0.0
2014-Apr-19 10:33N 43°24' E 003°42'0 0.0
2014-Apr-19 09:33N 43°24' E 003°42'0 0.0
2014-Apr-19 08:33N 43°24' E 003°42'0 0.0
2014-Apr-19 07:33N 43°24' E 003°42'0 0.0
2014-Apr-19 06:33N 43°24' E 003°42'0 0.0
2014-Apr-19 05:33N 43°24' E 003°42'0 0.0
2014-Apr-19 04:32N 43°24' E 003°42'0 0.0
2014-Apr-19 03:34N 43°24' E 003°42'0 0.0
2014-Apr-19 02:33N 43°24' E 003°42'0 0.0
2014-Apr-19 01:33N 43°24' E 003°42'0 0.0
2014-Apr-19 00:33N 43°24' E 003°42'0 0.0
2014-Apr-18 23:32N 43°24' E 003°42'0 0.0
2014-Apr-18 22:33N 43°24' E 003°42'0 0.0
2014-Apr-18 21:32N 43°24' E 003°42'0 0.0
2014-Apr-18 20:27N 43°24' E 003°42'0 0.0
2014-Apr-18 19:31N 43°24' E 003°42'0 0.0
2014-Apr-18 18:33N 43°24' E 003°42'0 0.0
2014-Apr-18 17:28N 43°24' E 003°42'0 0.0
2014-Apr-18 16:32N 43°24' E 003°42'1 0.9
2014-Apr-18 15:33N 43°24' E 003°43'1 0.9
2014-Apr-18 14:32N 43°23' E 003°43'1110.8
2014-Apr-18 13:33N 43°16' E 003°53'4 3.7
2014-Apr-18 12:33N 43°14' E 003°57'5 4.5
2014-Apr-18 11:30N 43°11' E 004°02'5 5.2
2014-Apr-18 10:33N 43°08' E 004°08'3 3.5
2014-Apr-18 09:33N 43°05' E 004°11'4 4.3
2014-Apr-18 08:33N 43°03' E 004°15'5 4.6
2014-Apr-18 07:33N 42°59' E 004°20'3 3.2
2014-Apr-18 06:32N 42°56' E 004°19'4 3.9
2014-Apr-18 05:33N 42°59' E 004°15'4 4.3
2014-Apr-18 04:32N 43°01' E 004°10'4 4.3
2014-Apr-18 03:33N 43°03' E 004°05'9 8.4
2014-Apr-18 02:29N 43°10' E 003°57'1111.3
2014-Apr-18 01:33N 43°18' E 003°48'7 6.9
2014-Apr-18 00:30N 43°24' E 003°42'0 0.0
2014-Apr-17 23:31N 43°24' E 003°42'0 0.0
2014-Apr-17 21:30N 43°24' E 003°42'0 0.0
2014-Apr-17 20:32N 43°24' E 003°42'0 0.0
2014-Apr-17 19:33N 43°24' E 003°42'0 0.0
2014-Apr-17 17:33N 43°24' E 003°42'0 0.0
2014-Apr-17 16:29N 43°24' E 003°42'0 0.0
2014-Apr-17 15:31N 43°24' E 003°42'2 1.7
2014-Apr-17 14:33N 43°23' E 003°43'10 6.9
2014-Apr-17 13:07N 43°14' E 003°49'3 5.0
2014-Apr-17 12:33N 43°11' E 003°51'5 4.4
2014-Apr-17 11:31N 43°08' E 003°56'4 4.4
2014-Apr-17 10:32N 43°05' E 003°60'4 3.5
2014-Apr-17 09:27N 43°03' E 004°04'8 4.4
2014-Apr-17 07:33N 43°00' E 004°15'5 4.5
2014-Apr-17 06:27N 42°57' E 004°19'3 2.9
2014-Apr-17 05:33N 42°59' E 004°18'29 7.1
2014-Apr-17 01:33N 43°18' E 003°49'8 6.1
2014-Apr-17 00:17N 43°24' E 003°42'0 0.0
2014-Apr-16 23:32N 43°24' E 003°42'0 0.0
2014-Apr-16 21:31N 43°24' E 003°42'0 0.0
2014-Apr-16 20:05N 43°24' E 003°42'0 0.0
2014-Apr-16 19:29N 43°24' E 003°42'0 0.0
2014-Apr-16 18:07N 43°24' E 003°42'0 0.0
2014-Apr-16 17:32N 43°24' E 003°42'0 0.0
2014-Apr-16 15:17N 43°24' E 003°42'2 2.1
2014-Apr-16 14:33N 43°23' E 003°43'10 8.8
2014-Apr-16 13:25N 43°18' E 003°55'4 4.7
2014-Apr-16 12:32N 43°16' E 003°60'5 4.5
2014-Apr-16 11:30N 43°13' E 004°05'4 4.4
2014-Apr-16 10:33N 43°11' E 004°10'4 3.7
2014-Apr-16 09:33N 43°08' E 004°13'5 4.3
2014-Apr-16 08:26N 43°03' E 004°14'4 4.3
2014-Apr-16 07:33N 43°00' E 004°10'25 4.2
2014-Apr-16 01:32N 43°20' E 003°50'7 7.1
2014-Apr-16 00:33N 43°24' E 003°42'0 0.0
2014-Apr-15 23:32N 43°24' E 003°42'0 0.0
2014-Apr-15 21:34N 43°24' E 003°42'0 0.0
2014-Apr-15 20:33N 43°24' E 003°42'0 0.0
2014-Apr-15 19:32N 43°24' E 003°42'0 0.0
2014-Apr-15 17:32N 43°24' E 003°42'0 0.0
2014-Apr-15 16:30N 43°24' E 003°42'0 0.0
2014-Apr-15 15:31N 43°24' E 003°42'2 1.6
2014-Apr-15 14:33N 43°22' E 003°42'15 5.1
2014-Apr-15 11:32N 43°07' E 003°45'4 4.5
2014-Apr-15 10:33N 43°03' E 003°44'4 4.3
2014-Apr-15 09:33N 42°60' E 003°41'4 3.8
2014-Apr-15 08:33N 42°57' E 003°38'9 4.5
2014-Apr-15 06:33N 42°50' E 003°29'28 4.7
2014-Apr-15 00:34N 43°17' E 003°41'7 3.4
2014-Apr-14 22:33N 43°24' E 003°42'0 0.0
2014-Apr-14 19:31N 43°24' E 003°42'0 0.0
2014-Apr-14 18:31N 43°24' E 003°42'0 0.0
2014-Apr-14 16:29N 43°24' E 003°42'0 0.0
2014-Apr-14 15:33N 43°24' E 003°42'5 2.7
2014-Apr-14 13:33N 43°20' E 003°47'11 5.5
2014-Apr-14 11:33N 43°14' E 003°59'5 4.6
2014-Apr-14 10:31N 43°11' E 004°05'4 4.6
2014-Apr-14 09:33N 43°08' E 004°09'4 4.2
2014-Apr-14 08:31N 43°06' E 004°14'10 3.3
2014-Apr-14 05:33N 42°57' E 004°19'39 2.7
2014-Apr-13 15:31N 43°24' E 003°42'0 0.0
2014-Apr-13 12:05N 43°24' E 003°42'0 0.0
2014-Apr-13 11:18N 43°24' E 003°42'0 0.0
2014-Apr-13 10:33N 43°24' E 003°42'0 0.0
2014-Apr-13 09:32N 43°24' E 003°42'0 0.0
2014-Apr-13 08:27N 43°24' E 003°42'0 0.0
2014-Apr-13 02:33N 43°24' E 003°42'0 0.0
2014-Apr-13 01:32N 43°24' E 003°42'0 0.0
2014-Apr-13 00:22N 43°24' E 003°42'0 0.0
2014-Apr-12 23:27N 43°24' E 003°42'0 0.0
2014-Apr-12 17:27N 43°24' E 003°42'0 0.0
2014-Apr-12 16:31N 43°24' E 003°42'0 0.0
2014-Apr-12 15:25N 43°24' E 003°42'0 0.0
2014-Apr-12 14:27N 43°24' E 003°42'0 0.0
2014-Apr-12 12:29N 43°24' E 003°42'0 0.0
2014-Apr-12 11:20N 43°24' E 003°42'0 0.0
2014-Apr-12 10:29N 43°24' E 003°42'0 0.0
2014-Apr-12 08:23N 43°24' E 003°42'0 0.0
2014-Apr-12 07:17N 43°24' E 003°42'0 0.0
2014-Apr-12 06:25N 43°24' E 003°42'0 0.0
2014-Apr-12 01:31N 43°24' E 003°42'0 0.0
2014-Apr-12 00:33N 43°24' E 003°42'0 0.0
2014-Apr-11 21:23N 43°24' E 003°42'0 0.0
2014-Apr-11 20:17N 43°24' E 003°42'0 0.0
2014-Apr-11 19:17N 43°24' E 003°42'0 0.0
2014-Apr-11 17:32N 43°24' E 003°42'0 0.2
2014-Apr-11 16:28N 43°24' E 003°42'0 0.1
2014-Apr-11 15:31N 43°24' E 003°42'5 5.1
2014-Apr-11 14:30N 43°22' E 003°49'6 6.0
2014-Apr-11 13:32N 43°19' E 003°55'5 4.8
2014-Apr-11 12:32N 43°17' E 004°01'  

Dump ship's entire track history

sailing weather and tide predictions

F/V Roger Christian3 — FUFL — position and weather